Terminal Aerodrome Forecast
Issued by NWS Grand Forks, ND

Home | Current Version | Previous Version | Graphics & Text | Print | Product List | Glossary On
Versions: 1 2 3 4 5 6 7 8 9 10 11 12 13 14 15 16 17 18 19 20 21 22
000
FTUS43 KFGF 271416 AAA
TAFGFK
TAF AMD
KGFK 271416Z 2714/2812 VRB03KT 1/4SM FG OVC002
     FM271700 VRB03KT 1SM BR BKN003
     FM271900 VRB04KT 3SM BR BKN005
     FM272100 VRB04KT P6SM SCT008
     FM280300 36007KT P6SM BKN008=

USA.gov is the U.S. government's official web portal to all federal, state and local government web resources and services.